sensor_id;sensor_type;location;lat;lon;timestamp;P1;durP1;ratioP1;P2;durP2;ratioP2
7289;SDS011;63176;52.678;13.250;2023-05-29T00:01:41;4.77;;;2.90;;
7289;SDS011;63176;52.678;13.250;2023-05-29T00:04:06;4.40;;;2.37;;
7289;SDS011;63176;52.678;13.250;2023-05-29T00:06:32;3.63;;;3.00;;
7289;SDS011;63176;52.678;13.250;2023-05-29T00:08:58;4.80;;;2.80;;
7289;SDS011;63176;52.678;13.250;2023-05-29T00:11:23;4.60;;;2.60;;
7289;SDS011;63176;52.678;13.250;2023-05-29T00:13:49;4.50;;;2.30;;
7289;SDS011;63176;52.678;13.250;2023-05-29T00:16:14;4.13;;;2.80;;
7289;SDS011;63176;52.678;13.250;2023-05-29T00:18:42;4.13;;;2.70;;
7289;SDS011;63176;52.678;13.250;2023-05-29T00:21:10;6.13;;;2.80;;
7289;SDS011;63176;52.678;13.250;2023-05-29T00:23:37;5.47;;;2.40;;
7289;SDS011;63176;52.678;13.250;2023-05-29T00:26:03;3.50;;;2.33;;
7289;SDS011;63176;52.678;13.250;2023-05-29T00:28:29;8.20;;;2.63;;
7289;SDS011;63176;52.678;13.250;2023-05-29T00:30:54;7.73;;;2.87;;
7289;SDS011;63176;52.678;13.250;2023-05-29T00:33:20;5.60;;;2.60;;
7289;SDS011;63176;52.678;13.250;2023-05-29T00:35:45;11.07;;;2.90;;
7289;SDS011;63176;52.678;13.250;2023-05-29T00:38:11;4.73;;;2.47;;
7289;SDS011;63176;52.678;13.250;2023-05-29T00:40:37;5.40;;;2.20;;
7289;SDS011;63176;52.678;13.250;2023-05-29T00:43:04;6.23;;;2.90;;
7289;SDS011;63176;52.678;13.250;2023-05-29T00:45:30;4.00;;;2.50;;
7289;SDS011;63176;52.678;13.250;2023-05-29T00:47:57;4.77;;;2.53;;
7289;SDS011;63176;52.678;13.250;2023-05-29T00:50:22;6.07;;;2.73;;
7289;SDS011;63176;52.678;13.250;2023-05-29T00:52:48;2.90;;;2.50;;
7289;SDS011;63176;52.678;13.250;2023-05-29T00:55:15;3.17;;;2.60;;
7289;SDS011;63176;52.678;13.250;2023-05-29T00:57:41;6.00;;;3.17;;
7289;SDS011;63176;52.678;13.250;2023-05-29T01:00:07;4.40;;;2.30;;
7289;SDS011;63176;52.678;13.250;2023-05-29T01:02:38;6.90;;;3.10;;
7289;SDS011;63176;52.678;13.250;2023-05-29T01:05:05;5.10;;;2.13;;
7289;SDS011;63176;52.678;13.250;2023-05-29T01:07:32;4.40;;;2.73;;
7289;SDS011;63176;52.678;13.250;2023-05-29T01:09:58;6.07;;;2.83;;
7289;SDS011;63176;52.678;13.250;2023-05-29T01:15:02;8.80;;;3.27;;
7289;SDS011;63176;52.678;13.250;2023-05-29T01:20:28;4.60;;;2.40;;
7289;SDS011;63176;52.678;13.250;2023-05-29T01:28:26;4.40;;;2.50;;
7289;SDS011;63176;52.678;13.250;2023-05-29T01:30:57;3.67;;;2.07;;
7289;SDS011;63176;52.678;13.250;2023-05-29T01:33:26;4.80;;;2.80;;
7289;SDS011;63176;52.678;13.250;2023-05-29T01:35:52;3.57;;;2.30;;
7289;SDS011;63176;52.678;13.250;2023-05-29T01:38:18;4.30;;;2.13;;
7289;SDS011;63176;52.678;13.250;2023-05-29T01:40:43;4.63;;;2.90;;
7289;SDS011;63176;52.678;13.250;2023-05-29T01:43:09;8.97;;;2.90;;
7289;SDS011;63176;52.678;13.250;2023-05-29T01:45:36;12.35;;;2.75;;
7289;SDS011;63176;52.678;13.250;2023-05-29T01:48:01;5.10;;;2.60;;
7289;SDS011;63176;52.678;13.250;2023-05-29T01:50:27;4.37;;;2.63;;
7289;SDS011;63176;52.678;13.250;2023-05-29T01:52:53;5.55;;;1.95;;
7289;SDS011;63176;52.678;13.250;2023-05-29T01:55:19;3.20;;;2.30;;
7289;SDS011;63176;52.678;13.250;2023-05-29T01:57:45;4.23;;;2.40;;
7289;SDS011;63176;52.678;13.250;2023-05-29T02:00:11;3.40;;;2.38;;
7289;SDS011;63176;52.678;13.250;2023-05-29T02:02:38;7.45;;;3.08;;
7289;SDS011;63176;52.678;13.250;2023-05-29T02:05:04;6.93;;;3.45;;
7289;SDS011;63176;52.678;13.250;2023-05-29T02:07:32;5.10;;;2.17;;
7289;SDS011;63176;52.678;13.250;2023-05-29T02:09:58;8.03;;;3.23;;
7289;SDS011;63176;52.678;13.250;2023-05-29T02:12:24;3.83;;;2.23;;
7289;SDS011;63176;52.678;13.250;2023-05-29T02:14:50;3.33;;;2.30;;
7289;SDS011;63176;52.678;13.250;2023-05-29T02:17:15;8.40;;;2.50;;
7289;SDS011;63176;52.678;13.250;2023-05-29T02:19:41;3.57;;;2.63;;
7289;SDS011;63176;52.678;13.250;2023-05-29T02:22:07;5.10;;;2.47;;
7289;SDS011;63176;52.678;13.250;2023-05-29T02:24:32;4.80;;;3.10;;
7289;SDS011;63176;52.678;13.250;2023-05-29T02:26:58;5.23;;;2.47;;
7289;SDS011;63176;52.678;13.250;2023-05-29T02:29:24;4.40;;;2.47;;
7289;SDS011;63176;52.678;13.250;2023-05-29T02:31:49;6.63;;;3.10;;
7289;SDS011;63176;52.678;13.250;2023-05-29T02:34:15;4.87;;;2.50;;
7289;SDS011;63176;52.678;13.250;2023-05-29T02:36:40;6.90;;;2.93;;
7289;SDS011;63176;52.678;13.250;2023-05-29T02:39:06;5.88;;;2.55;;
7289;SDS011;63176;52.678;13.250;2023-05-29T02:41:32;7.00;;;2.97;;
7289;SDS011;63176;52.678;13.250;2023-05-29T02:43:58;4.67;;;2.10;;
7289;SDS011;63176;52.678;13.250;2023-05-29T02:46:23;3.43;;;2.60;;
7289;SDS011;63176;52.678;13.250;2023-05-29T02:48:49;4.53;;;2.80;;
7289;SDS011;63176;52.678;13.250;2023-05-29T02:51:15;4.47;;;2.20;;
7289;SDS011;63176;52.678;13.250;2023-05-29T02:53:40;6.70;;;2.80;;
7289;SDS011;63176;52.678;13.250;2023-05-29T02:56:06;4.40;;;2.30;;
7289;SDS011;63176;52.678;13.250;2023-05-29T02:58:34;4.00;;;2.83;;
7289;SDS011;63176;52.678;13.250;2023-05-29T03:01:00;3.75;;;2.58;;
7289;SDS011;63176;52.678;13.250;2023-05-29T03:03:28;4.32;;;2.30;;
7289;SDS011;63176;52.678;13.250;2023-05-29T03:05:54;4.50;;;2.80;;
7289;SDS011;63176;52.678;13.250;2023-05-29T03:08:20;4.93;;;2.17;;
7289;SDS011;63176;52.678;13.250;2023-05-29T03:10:46;7.53;;;2.30;;
7289;SDS011;63176;52.678;13.250;2023-05-29T03:13:12;3.53;;;2.08;;
7289;SDS011;63176;52.678;13.250;2023-05-29T03:15:38;5.82;;;2.63;;
7289;SDS011;63176;52.678;13.250;2023-05-29T03:18:04;3.20;;;2.63;;
7289;SDS011;63176;52.678;13.250;2023-05-29T03:20:29;4.90;;;2.50;;
7289;SDS011;63176;52.678;13.250;2023-05-29T03:22:55;4.20;;;2.57;;
7289;SDS011;63176;52.678;13.250;2023-05-29T03:25:21;3.67;;;2.80;;
7289;SDS011;63176;52.678;13.250;2023-05-29T03:27:47;4.33;;;2.80;;
7289;SDS011;63176;52.678;13.250;2023-05-29T03:30:12;7.33;;;2.97;;
7289;SDS011;63176;52.678;13.250;2023-05-29T03:32:38;3.80;;;2.60;;
7289;SDS011;63176;52.678;13.250;2023-05-29T03:35:04;3.00;;;2.63;;
7289;SDS011;63176;52.678;13.250;2023-05-29T03:37:30;3.80;;;2.17;;
7289;SDS011;63176;52.678;13.250;2023-05-29T03:39:55;4.07;;;2.60;;
7289;SDS011;63176;52.678;13.250;2023-05-29T03:42:21;4.43;;;2.80;;
7289;SDS011;63176;52.678;13.250;2023-05-29T03:44:47;5.77;;;2.70;;
7289;SDS011;63176;52.678;13.250;2023-05-29T03:47:12;3.17;;;2.50;;
7289;SDS011;63176;52.678;13.250;2023-05-29T03:49:38;5.77;;;2.83;;
7289;SDS011;63176;52.678;13.250;2023-05-29T03:52:04;7.60;;;3.17;;
7289;SDS011;63176;52.678;13.250;2023-05-29T03:54:30;7.10;;;3.60;;
7289;SDS011;63176;52.678;13.250;2023-05-29T03:56:55;6.57;;;3.10;;
7289;SDS011;63176;52.678;13.250;2023-05-29T03:59:21;5.20;;;2.80;;
7289;SDS011;63176;52.678;13.250;2023-05-29T04:01:46;5.30;;;2.93;;
7289;SDS011;63176;52.678;13.250;2023-05-29T04:04:12;4.70;;;3.53;;
7289;SDS011;63176;52.678;13.250;2023-05-29T04:06:38;3.87;;;3.13;;
7289;SDS011;63176;52.678;13.250;2023-05-29T04:09:04;5.93;;;3.10;;
7289;SDS011;63176;52.678;13.250;2023-05-29T04:11:31;6.55;;;3.55;;
7289;SDS011;63176;52.678;13.250;2023-05-29T04:13:59;5.00;;;3.00;;
7289;SDS011;63176;52.678;13.250;2023-05-29T04:16:28;6.85;;;3.13;;
7289;SDS011;63176;52.678;13.250;2023-05-29T04:18:54;3.90;;;2.67;;
7289;SDS011;63176;52.678;13.250;2023-05-29T04:21:20;5.25;;;2.70;;
7289;SDS011;63176;52.678;13.250;2023-05-29T04:23:46;5.28;;;3.10;;
7289;SDS011;63176;52.678;13.250;2023-05-29T04:26:11;5.43;;;2.37;;
7289;SDS011;63176;52.678;13.250;2023-05-29T04:28:38;8.37;;;2.87;;
7289;SDS011;63176;52.678;13.250;2023-05-29T04:31:04;4.53;;;3.00;;
7289;SDS011;63176;52.678;13.250;2023-05-29T04:33:30;10.52;;;3.60;;
7289;SDS011;63176;52.678;13.250;2023-05-29T04:35:57;8.37;;;3.80;;
7289;SDS011;63176;52.678;13.250;2023-05-29T04:38:26;5.07;;;3.47;;
7289;SDS011;63176;52.678;13.250;2023-05-29T04:40:52;6.00;;;3.40;;
7289;SDS011;63176;52.678;13.250;2023-05-29T04:43:23;10.43;;;3.93;;
7289;SDS011;63176;52.678;13.250;2023-05-29T04:45:51;6.60;;;3.30;;
7289;SDS011;63176;52.678;13.250;2023-05-29T04:48:17;5.30;;;3.07;;
7289;SDS011;63176;52.678;13.250;2023-05-29T04:50:43;6.77;;;2.90;;
7289;SDS011;63176;52.678;13.250;2023-05-29T04:53:09;4.13;;;2.43;;
7289;SDS011;63176;52.678;13.250;2023-05-29T04:55:35;8.47;;;3.20;;
7289;SDS011;63176;52.678;13.250;2023-05-29T04:58:01;5.90;;;3.30;;
7289;SDS011;63176;52.678;13.250;2023-05-29T05:00:27;7.93;;;2.90;;
7289;SDS011;63176;52.678;13.250;2023-05-29T05:02:53;7.20;;;3.00;;
7289;SDS011;63176;52.678;13.250;2023-05-29T05:05:18;3.40;;;2.63;;
7289;SDS011;63176;52.678;13.250;2023-05-29T05:07:45;6.73;;;3.17;;
7289;SDS011;63176;52.678;13.250;2023-05-29T05:10:10;3.00;;;2.40;;
7289;SDS011;63176;52.678;13.250;2023-05-29T05:12:36;5.60;;;2.87;;
7289;SDS011;63176;52.678;13.250;2023-05-29T05:15:02;5.17;;;3.30;;
7289;SDS011;63176;52.678;13.250;2023-05-29T05:17:28;6.23;;;2.93;;
7289;SDS011;63176;52.678;13.250;2023-05-29T05:19:54;5.50;;;3.40;;
7289;SDS011;63176;52.678;13.250;2023-05-29T05:22:19;4.70;;;3.00;;
7289;SDS011;63176;52.678;13.250;2023-05-29T05:24:45;5.83;;;2.77;;
7289;SDS011;63176;52.678;13.250;2023-05-29T05:27:11;6.47;;;3.83;;
7289;SDS011;63176;52.678;13.250;2023-05-29T05:29:36;7.10;;;2.40;;
7289;SDS011;63176;52.678;13.250;2023-05-29T05:32:02;13.10;;;4.07;;
7289;SDS011;63176;52.678;13.250;2023-05-29T05:34:28;4.67;;;2.93;;
7289;SDS011;63176;52.678;13.250;2023-05-29T05:36:53;4.03;;;2.90;;
7289;SDS011;63176;52.678;13.250;2023-05-29T05:39:19;5.83;;;2.77;;
7289;SDS011;63176;52.678;13.250;2023-05-29T05:41:45;3.37;;;2.50;;
7289;SDS011;63176;52.678;13.250;2023-05-29T05:44:10;3.97;;;2.60;;
7289;SDS011;63176;52.678;13.250;2023-05-29T05:46:36;6.40;;;3.30;;
7289;SDS011;63176;52.678;13.250;2023-05-29T05:49:01;6.83;;;3.27;;
7289;SDS011;63176;52.678;13.250;2023-05-29T05:51:27;2.97;;;2.40;;
7289;SDS011;63176;52.678;13.250;2023-05-29T05:53:53;6.13;;;3.03;;
7289;SDS011;63176;52.678;13.250;2023-05-29T05:56:19;6.00;;;3.17;;
7289;SDS011;63176;52.678;13.250;2023-05-29T05:58:44;3.43;;;2.80;;
7289;SDS011;63176;52.678;13.250;2023-05-29T06:01:10;7.33;;;2.30;;
7289;SDS011;63176;52.678;13.250;2023-05-29T06:03:36;2.57;;;2.20;;
7289;SDS011;63176;52.678;13.250;2023-05-29T06:06:02;3.40;;;2.17;;
7289;SDS011;63176;52.678;13.250;2023-05-29T06:08:28;4.50;;;2.40;;
7289;SDS011;63176;52.678;13.250;2023-05-29T06:10:54;4.40;;;2.10;;
7289;SDS011;63176;52.678;13.250;2023-05-29T06:13:20;5.43;;;3.57;;
7289;SDS011;63176;52.678;13.250;2023-05-29T06:15:46;3.83;;;2.27;;
7289;SDS011;63176;52.678;13.250;2023-05-29T06:18:11;5.07;;;2.40;;
7289;SDS011;63176;52.678;13.250;2023-05-29T06:20:37;5.47;;;2.20;;
7289;SDS011;63176;52.678;13.250;2023-05-29T06:23:03;4.70;;;2.63;;
7289;SDS011;63176;52.678;13.250;2023-05-29T06:25:29;5.10;;;2.60;;
7289;SDS011;63176;52.678;13.250;2023-05-29T06:28:01;3.77;;;3.37;;
7289;SDS011;63176;52.678;13.250;2023-05-29T06:30:27;5.27;;;2.43;;
7289;SDS011;63176;52.678;13.250;2023-05-29T06:32:53;3.10;;;2.43;;
7289;SDS011;63176;52.678;13.250;2023-05-29T06:35:19;4.57;;;2.10;;
7289;SDS011;63176;52.678;13.250;2023-05-29T06:37:45;4.90;;;2.67;;
7289;SDS011;63176;52.678;13.250;2023-05-29T06:40:12;3.20;;;2.40;;
7289;SDS011;63176;52.678;13.250;2023-05-29T06:42:38;6.83;;;1.73;;
7289;SDS011;63176;52.678;13.250;2023-05-29T06:45:04;1.60;;;1.50;;
7289;SDS011;63176;52.678;13.250;2023-05-29T06:47:29;2.30;;;1.70;;
7289;SDS011;63176;52.678;13.250;2023-05-29T06:49:55;2.23;;;1.70;;
7289;SDS011;63176;52.678;13.250;2023-05-29T06:52:21;2.37;;;1.97;;
7289;SDS011;63176;52.678;13.250;2023-05-29T06:54:46;4.53;;;1.80;;
7289;SDS011;63176;52.678;13.250;2023-05-29T06:57:12;1.70;;;1.60;;
7289;SDS011;63176;52.678;13.250;2023-05-29T06:59:38;2.50;;;1.73;;
7289;SDS011;63176;52.678;13.250;2023-05-29T07:02:04;1.43;;;1.33;;
7289;SDS011;63176;52.678;13.250;2023-05-29T07:04:30;2.60;;;1.40;;
7289;SDS011;63176;52.678;13.250;2023-05-29T07:06:56;2.00;;;1.43;;
7289;SDS011;63176;52.678;13.250;2023-05-29T07:09:21;7.43;;;1.50;;
7289;SDS011;63176;52.678;13.250;2023-05-29T07:11:47;1.40;;;1.30;;
7289;SDS011;63176;52.678;13.250;2023-05-29T07:14:12;1.80;;;1.40;;
7289;SDS011;63176;52.678;13.250;2023-05-29T07:16:39;2.33;;;1.50;;
7289;SDS011;63176;52.678;13.250;2023-05-29T07:19:04;1.73;;;1.10;;
7289;SDS011;63176;52.678;13.250;2023-05-29T07:21:30;4.97;;;2.10;;
7289;SDS011;63176;52.678;13.250;2023-05-29T07:23:56;3.47;;;1.73;;
7289;SDS011;63176;52.678;13.250;2023-05-29T07:26:22;1.97;;;1.47;;
7289;SDS011;63176;52.678;13.250;2023-05-29T07:28:48;3.10;;;1.60;;
7289;SDS011;63176;52.678;13.250;2023-05-29T07:31:14;4.20;;;1.40;;
7289;SDS011;63176;52.678;13.250;2023-05-29T07:33:40;3.60;;;1.60;;
7289;SDS011;63176;52.678;13.250;2023-05-29T07:36:06;1.50;;;1.23;;
7289;SDS011;63176;52.678;13.250;2023-05-29T07:38:32;2.00;;;1.50;;
7289;SDS011;63176;52.678;13.250;2023-05-29T07:40:58;4.63;;;1.30;;
7289;SDS011;63176;52.678;13.250;2023-05-29T07:43:24;2.77;;;1.87;;
7289;SDS011;63176;52.678;13.250;2023-05-29T07:45:49;2.00;;;1.43;;
7289;SDS011;63176;52.678;13.250;2023-05-29T07:48:15;2.90;;;1.60;;
7289;SDS011;63176;52.678;13.250;2023-05-29T07:50:41;2.30;;;1.60;;
7289;SDS011;63176;52.678;13.250;2023-05-29T07:53:06;1.37;;;1.13;;
7289;SDS011;63176;52.678;13.250;2023-05-29T07:55:33;1.33;;;1.23;;
7289;SDS011;63176;52.678;13.250;2023-05-29T07:57:59;1.33;;;1.13;;
7289;SDS011;63176;52.678;13.250;2023-05-29T08:00:26;3.37;;;1.20;;
7289;SDS011;63176;52.678;13.250;2023-05-29T08:02:53;1.27;;;1.07;;
7289;SDS011;63176;52.678;13.250;2023-05-29T08:05:19;1.27;;;1.10;;
7289;SDS011;63176;52.678;13.250;2023-05-29T08:07:45;2.50;;;1.40;;
7289;SDS011;63176;52.678;13.250;2023-05-29T08:10:12;2.63;;;1.33;;
7289;SDS011;63176;52.678;13.250;2023-05-29T08:12:37;3.93;;;1.10;;
7289;SDS011;63176;52.678;13.250;2023-05-29T08:15:03;2.03;;;1.07;;
7289;SDS011;63176;52.678;13.250;2023-05-29T08:17:29;2.63;;;1.27;;
7289;SDS011;63176;52.678;13.250;2023-05-29T08:19:55;1.50;;;1.30;;
7289;SDS011;63176;52.678;13.250;2023-05-29T08:22:21;3.50;;;1.53;;
7289;SDS011;63176;52.678;13.250;2023-05-29T08:24:53;3.13;;;1.57;;
7289;SDS011;63176;52.678;13.250;2023-05-29T08:27:19;4.53;;;1.53;;
7289;SDS011;63176;52.678;13.250;2023-05-29T08:29:44;2.07;;;1.40;;
7289;SDS011;63176;52.678;13.250;2023-05-29T08:32:10;3.00;;;1.37;;
7289;SDS011;63176;52.678;13.250;2023-05-29T08:34:36;2.50;;;1.40;;
7289;SDS011;63176;52.678;13.250;2023-05-29T08:37:02;1.87;;;1.50;;
7289;SDS011;63176;52.678;13.250;2023-05-29T08:39:27;3.13;;;1.53;;
7289;SDS011;63176;52.678;13.250;2023-05-29T08:42:01;4.00;;;1.80;;
7289;SDS011;63176;52.678;13.250;2023-05-29T08:44:30;2.30;;;1.80;;
7289;SDS011;63176;52.678;13.250;2023-05-29T08:47:00;2.40;;;1.47;;
7289;SDS011;63176;52.678;13.250;2023-05-29T08:49:34;4.50;;;1.40;;
7289;SDS011;63176;52.678;13.250;2023-05-29T08:52:15;17.63;;;1.80;;
7289;SDS011;63176;52.678;13.250;2023-05-29T08:54:41;1.87;;;1.40;;
7289;SDS011;63176;52.678;13.250;2023-05-29T08:57:08;1.87;;;1.37;;
7289;SDS011;63176;52.678;13.250;2023-05-29T08:59:35;4.40;;;1.77;;
7289;SDS011;63176;52.678;13.250;2023-05-29T09:02:04;4.50;;;1.57;;
7289;SDS011;63176;52.678;13.250;2023-05-29T09:04:30;2.70;;;1.73;;
7289;SDS011;63176;52.678;13.250;2023-05-29T09:06:57;2.60;;;1.50;;
7289;SDS011;63176;52.678;13.250;2023-05-29T09:09:24;4.93;;;1.33;;
7289;SDS011;63176;52.678;13.250;2023-05-29T09:11:52;2.10;;;1.90;;
7289;SDS011;63176;52.678;13.250;2023-05-29T09:17:02;3.27;;;1.80;;
7289;SDS011;63176;52.678;13.250;2023-05-29T09:19:30;7.53;;;1.57;;
7289;SDS011;63176;52.678;13.250;2023-05-29T09:24:29;1.60;;;1.50;;
7289;SDS011;63176;52.678;13.250;2023-05-29T09:26:55;3.23;;;1.40;;
7289;SDS011;63176;52.678;13.250;2023-05-29T09:29:23;3.13;;;1.70;;
7289;SDS011;63176;52.678;13.250;2023-05-29T09:31:50;1.60;;;1.30;;
7289;SDS011;63176;52.678;13.250;2023-05-29T09:34:15;2.53;;;1.90;;
7289;SDS011;63176;52.678;13.250;2023-05-29T09:36:41;2.93;;;1.67;;
7289;SDS011;63176;52.678;13.250;2023-05-29T09:39:07;2.27;;;1.83;;
7289;SDS011;63176;52.678;13.250;2023-05-29T09:41:41;3.93;;;1.70;;
7289;SDS011;63176;52.678;13.250;2023-05-29T09:44:07;1.60;;;1.50;;
7289;SDS011;63176;52.678;13.250;2023-05-29T09:46:35;3.00;;;1.80;;
7289;SDS011;63176;52.678;13.250;2023-05-29T09:49:01;1.53;;;1.43;;
7289;SDS011;63176;52.678;13.250;2023-05-29T09:51:30;3.60;;;1.80;;
7289;SDS011;63176;52.678;13.250;2023-05-29T09:53:56;3.50;;;1.80;;
7289;SDS011;63176;52.678;13.250;2023-05-29T09:56:25;4.10;;;1.53;;
7289;SDS011;63176;52.678;13.250;2023-05-29T09:58:53;5.90;;;1.83;;
7289;SDS011;63176;52.678;13.250;2023-05-29T10:01:22;1.87;;;1.60;;
7289;SDS011;63176;52.678;13.250;2023-05-29T10:03:49;2.23;;;1.97;;
7289;SDS011;63176;52.678;13.250;2023-05-29T10:06:16;3.23;;;1.60;;
7289;SDS011;63176;52.678;13.250;2023-05-29T10:08:45;1.90;;;1.40;;
7289;SDS011;63176;52.678;13.250;2023-05-29T10:11:16;5.33;;;1.63;;
7289;SDS011;63176;52.678;13.250;2023-05-29T10:13:49;1.93;;;1.70;;
7289;SDS011;63176;52.678;13.250;2023-05-29T10:16:18;3.50;;;2.07;;
7289;SDS011;63176;52.678;13.250;2023-05-29T10:18:56;1.57;;;1.33;;
7289;SDS011;63176;52.678;13.250;2023-05-29T10:21:23;5.23;;;2.00;;
7289;SDS011;63176;52.678;13.250;2023-05-29T10:23:51;2.73;;;1.80;;
7289;SDS011;63176;52.678;13.250;2023-05-29T10:26:25;2.13;;;1.80;;
7289;SDS011;63176;52.678;13.250;2023-05-29T10:37:08;3.23;;;1.77;;
7289;SDS011;63176;52.678;13.250;2023-05-29T10:39:34;3.87;;;1.73;;
7289;SDS011;63176;52.678;13.250;2023-05-29T10:42:00;4.37;;;1.77;;
7289;SDS011;63176;52.678;13.250;2023-05-29T10:49:22;4.60;;;1.53;;
7289;SDS011;63176;52.678;13.250;2023-05-29T10:51:48;2.77;;;1.47;;
7289;SDS011;63176;52.678;13.250;2023-05-29T10:54:15;3.80;;;1.67;;
7289;SDS011;63176;52.678;13.250;2023-05-29T10:56:41;3.20;;;1.90;;
7289;SDS011;63176;52.678;13.250;2023-05-29T10:59:16;3.30;;;1.73;;
7289;SDS011;63176;52.678;13.250;2023-05-29T11:01:43;3.17;;;1.70;;
7289;SDS011;63176;52.678;13.250;2023-05-29T11:06:47;1.87;;;1.40;;
7289;SDS011;63176;52.678;13.250;2023-05-29T11:09:29;1.60;;;1.50;;
7289;SDS011;63176;52.678;13.250;2023-05-29T11:12:10;2.23;;;2.03;;
7289;SDS011;63176;52.678;13.250;2023-05-29T11:15:03;2.67;;;1.57;;
7289;SDS011;63176;52.678;13.250;2023-05-29T11:20:03;3.47;;;2.00;;
7289;SDS011;63176;52.678;13.250;2023-05-29T11:22:46;3.10;;;1.73;;
7289;SDS011;63176;52.678;13.250;2023-05-29T11:25:17;2.60;;;1.37;;
7289;SDS011;63176;52.678;13.250;2023-05-29T11:27:45;4.60;;;1.97;;
7289;SDS011;63176;52.678;13.250;2023-05-29T11:30:11;5.50;;;1.97;;
7289;SDS011;63176;52.678;13.250;2023-05-29T11:32:37;7.10;;;2.13;;
7289;SDS011;63176;52.678;13.250;2023-05-29T11:35:09;2.50;;;1.50;;
7289;SDS011;63176;52.678;13.250;2023-05-29T11:37:35;2.40;;;1.50;;
7289;SDS011;63176;52.678;13.250;2023-05-29T11:40:06;3.83;;;1.90;;
7289;SDS011;63176;52.678;13.250;2023-05-29T11:42:35;1.43;;;1.30;;
7289;SDS011;63176;52.678;13.250;2023-05-29T11:47:56;3.77;;;2.23;;
7289;SDS011;63176;52.678;13.250;2023-05-29T11:50:32;2.90;;;1.60;;
7289;SDS011;63176;52.678;13.250;2023-05-29T11:52:59;3.33;;;1.60;;
7289;SDS011;63176;52.678;13.250;2023-05-29T11:55:25;3.30;;;1.90;;
7289;SDS011;63176;52.678;13.250;2023-05-29T11:57:59;4.13;;;1.60;;
7289;SDS011;63176;52.678;13.250;2023-05-29T12:00:25;2.70;;;1.67;;
7289;SDS011;63176;52.678;13.250;2023-05-29T12:02:56;4.57;;;1.10;;
7289;SDS011;63176;52.678;13.250;2023-05-29T12:05:23;2.60;;;1.57;;
7289;SDS011;63176;52.678;13.250;2023-05-29T12:07:55;3.20;;;1.60;;
7289;SDS011;63176;52.678;13.250;2023-05-29T12:10:21;2.47;;;1.70;;
7289;SDS011;63176;52.678;13.250;2023-05-29T12:12:51;2.27;;;1.63;;
7289;SDS011;63176;52.678;13.250;2023-05-29T12:15:19;2.83;;;1.77;;
7289;SDS011;63176;52.678;13.250;2023-05-29T12:17:45;2.03;;;1.60;;
7289;SDS011;63176;52.678;13.250;2023-05-29T12:20:12;3.07;;;1.77;;
7289;SDS011;63176;52.678;13.250;2023-05-29T12:22:39;2.33;;;1.37;;
7289;SDS011;63176;52.678;13.250;2023-05-29T12:27:32;3.07;;;1.33;;
7289;SDS011;63176;52.678;13.250;2023-05-29T12:30:07;2.47;;;1.40;;
7289;SDS011;63176;52.678;13.250;2023-05-29T12:35:18;1.20;;;1.10;;
7289;SDS011;63176;52.678;13.250;2023-05-29T12:37:53;2.07;;;1.67;;
7289;SDS011;63176;52.678;13.250;2023-05-29T12:40:27;2.50;;;1.60;;
7289;SDS011;63176;52.678;13.250;2023-05-29T12:42:57;2.60;;;1.40;;
7289;SDS011;63176;52.678;13.250;2023-05-29T12:45:26;2.00;;;1.43;;
7289;SDS011;63176;52.678;13.250;2023-05-29T12:47:57;6.70;;;1.60;;
7289;SDS011;63176;52.678;13.250;2023-05-29T12:50:31;3.10;;;2.67;;
7289;SDS011;63176;52.678;13.250;2023-05-29T12:53:06;5.10;;;1.50;;
7289;SDS011;63176;52.678;13.250;2023-05-29T12:55:32;3.10;;;1.37;;
7289;SDS011;63176;52.678;13.250;2023-05-29T12:58:02;2.10;;;1.40;;
7289;SDS011;63176;52.678;13.250;2023-05-29T13:00:28;2.40;;;1.43;;
7289;SDS011;63176;52.678;13.250;2023-05-29T13:02:55;3.37;;;1.37;;
7289;SDS011;63176;52.678;13.250;2023-05-29T13:05:21;1.30;;;1.20;;
7289;SDS011;63176;52.678;13.250;2023-05-29T13:07:48;2.37;;;1.30;;
7289;SDS011;63176;52.678;13.250;2023-05-29T13:10:15;4.83;;;1.83;;
7289;SDS011;63176;52.678;13.250;2023-05-29T13:12:41;2.03;;;1.50;;
7289;SDS011;63176;52.678;13.250;2023-05-29T13:15:09;4.40;;;1.97;;
7289;SDS011;63176;52.678;13.250;2023-05-29T13:17:36;3.63;;;1.57;;
7289;SDS011;63176;52.678;13.250;2023-05-29T13:20:02;4.70;;;2.00;;
7289;SDS011;63176;52.678;13.250;2023-05-29T13:22:32;2.30;;;1.43;;
7289;SDS011;63176;52.678;13.250;2023-05-29T13:24:58;3.13;;;1.30;;
7289;SDS011;63176;52.678;13.250;2023-05-29T13:27:24;3.40;;;1.47;;
7289;SDS011;63176;52.678;13.250;2023-05-29T13:29:50;5.40;;;1.40;;
7289;SDS011;63176;52.678;13.250;2023-05-29T13:32:16;4.40;;;2.10;;
7289;SDS011;63176;52.678;13.250;2023-05-29T13:34:42;6.20;;;1.30;;
7289;SDS011;63176;52.678;13.250;2023-05-29T13:37:08;3.30;;;1.37;;
7289;SDS011;63176;52.678;13.250;2023-05-29T13:39:33;3.20;;;1.37;;
7289;SDS011;63176;52.678;13.250;2023-05-29T13:41:59;2.97;;;1.20;;
7289;SDS011;63176;52.678;13.250;2023-05-29T13:44:25;3.10;;;1.33;;
7289;SDS011;63176;52.678;13.250;2023-05-29T13:46:51;2.70;;;1.30;;
7289;SDS011;63176;52.678;13.250;2023-05-29T13:49:17;8.23;;;1.53;;
7289;SDS011;63176;52.678;13.250;2023-05-29T13:51:42;4.97;;;1.80;;
7289;SDS011;63176;52.678;13.250;2023-05-29T13:54:10;6.00;;;1.17;;
7289;SDS011;63176;52.678;13.250;2023-05-29T13:56:35;6.67;;;1.70;;
7289;SDS011;63176;52.678;13.250;2023-05-29T13:59:01;9.53;;;1.53;;
7289;SDS011;63176;52.678;13.250;2023-05-29T14:01:30;2.13;;;1.20;;
7289;SDS011;63176;52.678;13.250;2023-05-29T14:03:56;2.90;;;1.30;;
7289;SDS011;63176;52.678;13.250;2023-05-29T14:06:21;1.90;;;0.97;;
7289;SDS011;63176;52.678;13.250;2023-05-29T14:08:47;6.80;;;1.37;;
7289;SDS011;63176;52.678;13.250;2023-05-29T14:11:13;2.87;;;1.10;;
7289;SDS011;63176;52.678;13.250;2023-05-29T14:13:38;2.43;;;1.20;;
7289;SDS011;63176;52.678;13.250;2023-05-29T14:16:04;3.63;;;1.60;;
7289;SDS011;63176;52.678;13.250;2023-05-29T14:18:30;1.40;;;1.30;;
7289;SDS011;63176;52.678;13.250;2023-05-29T14:20:55;2.90;;;1.20;;
7289;SDS011;63176;52.678;13.250;2023-05-29T14:23:21;3.43;;;1.30;;
7289;SDS011;63176;52.678;13.250;2023-05-29T14:25:47;5.03;;;1.30;;
7289;SDS011;63176;52.678;13.250;2023-05-29T14:28:12;2.97;;;1.50;;
7289;SDS011;63176;52.678;13.250;2023-05-29T14:30:38;2.87;;;1.60;;
7289;SDS011;63176;52.678;13.250;2023-05-29T14:33:04;1.73;;;1.20;;
7289;SDS011;63176;52.678;13.250;2023-05-29T14:35:30;2.80;;;1.40;;
7289;SDS011;63176;52.678;13.250;2023-05-29T14:37:56;2.60;;;1.20;;
7289;SDS011;63176;52.678;13.250;2023-05-29T14:40:22;2.70;;;1.50;;
7289;SDS011;63176;52.678;13.250;2023-05-29T14:42:48;2.23;;;1.30;;
7289;SDS011;63176;52.678;13.250;2023-05-29T14:45:13;3.07;;;1.50;;
7289;SDS011;63176;52.678;13.250;2023-05-29T14:47:40;3.27;;;1.30;;
7289;SDS011;63176;52.678;13.250;2023-05-29T14:50:06;6.23;;;3.00;;
7289;SDS011;63176;52.678;13.250;2023-05-29T14:52:32;2.37;;;1.30;;
7289;SDS011;63176;52.678;13.250;2023-05-29T14:54:58;4.80;;;1.17;;
7289;SDS011;63176;52.678;13.250;2023-05-29T14:57:26;2.30;;;1.73;;
7289;SDS011;63176;52.678;13.250;2023-05-29T14:59:52;2.10;;;1.13;;
7289;SDS011;63176;52.678;13.250;2023-05-29T15:02:17;2.93;;;1.30;;
7289;SDS011;63176;52.678;13.250;2023-05-29T15:04:43;2.93;;;1.10;;
7289;SDS011;63176;52.678;13.250;2023-05-29T15:07:08;2.20;;;1.07;;
7289;SDS011;63176;52.678;13.250;2023-05-29T15:09:34;2.50;;;1.63;;
7289;SDS011;63176;52.678;13.250;2023-05-29T15:12:00;1.13;;;0.90;;
7289;SDS011;63176;52.678;13.250;2023-05-29T15:14:26;7.23;;;1.43;;
7289;SDS011;63176;52.678;13.250;2023-05-29T15:16:52;5.27;;;1.70;;
7289;SDS011;63176;52.678;13.250;2023-05-29T15:19:19;2.60;;;1.73;;
7289;SDS011;63176;52.678;13.250;2023-05-29T15:21:45;4.70;;;2.30;;
7289;SDS011;63176;52.678;13.250;2023-05-29T15:24:11;7.90;;;3.90;;
7289;SDS011;63176;52.678;13.250;2023-05-29T15:26:36;2.50;;;1.60;;
7289;SDS011;63176;52.678;13.250;2023-05-29T15:29:02;3.07;;;1.93;;